CheckWX is a tool to help pilots better visualize weather data.  It is not intended as a substitute for an official pre-flight weather briefing.

19:09:25 UTC

DRZA METAR
Mano Dayak International Airport
Agadez, Niger
Current

1 hour ago

DRZA 261800Z 12020KT CAVOK 31/07 Q1014
Observed
Mar-26 @ 18:00 UTC
Wind
  • 120° at 20 KTS
Visibility
10,000+ meters
Flight Rules
VFR
Cloud Levels
  • Clear skies
Temperature
31°C / 88°F
Dewpoint
C / 45°F
Humidity
22%
Altimeter
29.94" Hg
Pressure
1013.92 hPa
Previous

2 hours ago

DRZA 261700Z 12020KT CAVOK 32/07 Q1014
Observed
Mar-26 @ 17:00 UTC
Wind
  • 120° at 20 KTS
Visibility
10,000+ meters
Flight Rules
VFR
Cloud Levels
  • Clear skies
Temperature
32°C / 90°F
Dewpoint
C / 45°F
Humidity
21%
Altimeter
29.94" Hg
Pressure
1013.92 hPa
Previous

4 hours ago

DRZA 261500Z 12016KT CAVOK 35/09 Q1014
Observed
Mar-26 @ 15:00 UTC
Wind
  • 120° at 16 KTS
Visibility
10,000+ meters
Flight Rules
VFR
Cloud Levels
  • Clear skies
Temperature
35°C / 95°F
Dewpoint
C / 48°F
Humidity
20%
Altimeter
29.94" Hg
Pressure
1013.92 hPa